createdAt,value
2017-11-14T00:00:03.268Z,5.65
2017-11-14T00:01:05.079Z,5.71
2017-11-14T00:02:06.954Z,5.82
2017-11-14T00:03:08.835Z,5.81
2017-11-14T00:04:10.711Z,5.81
2017-11-14T00:05:24.901Z,5.83
2017-11-14T00:06:26.782Z,5.91
2017-11-14T00:07:28.657Z,5.81
2017-11-14T00:08:30.532Z,5.94
2017-11-14T00:09:32.345Z,5.85
2017-11-14T00:10:34.158Z,6.00
2017-11-14T00:11:36.035Z,6.04
2017-11-14T00:12:37.912Z,6.08
2017-11-14T00:13:39.800Z,6.03
2017-11-14T00:14:53.932Z,5.97
2017-11-14T00:15:55.806Z,5.99
2017-11-14T00:16:57.688Z,5.81
2017-11-14T00:17:59.564Z,5.85
2017-11-14T00:19:01.381Z,5.83
2017-11-14T00:20:03.194Z,5.71
2017-11-14T00:21:05.073Z,5.78
2017-11-14T00:22:06.951Z,5.74
2017-11-14T00:23:08.829Z,5.65
2017-11-14T00:24:22.972Z,5.67
2017-11-14T00:25:24.848Z,5.58
2017-11-14T00:26:26.728Z,5.53
2017-11-14T00:27:28.604Z,5.45
2017-11-14T00:28:30.417Z,5.48
2017-11-14T00:29:32.231Z,5.46
2017-11-14T00:30:34.108Z,5.60
2017-11-14T00:31:35.984Z,5.72
2017-11-14T00:32:37.860Z,5.71
2017-11-14T00:33:52.005Z,5.78
2017-11-14T00:34:53.880Z,5.78
2017-11-14T00:35:55.760Z,5.72
2017-11-14T00:36:57.637Z,5.79
2017-11-14T00:37:59.449Z,5.74
2017-11-14T00:39:01.260Z,5.68
2017-11-14T00:40:03.136Z,5.76
2017-11-14T00:41:05.012Z,5.81
2017-11-14T00:42:06.896Z,5.74
2017-11-14T00:43:21.080Z,5.68
2017-11-14T00:44:22.955Z,5.72
2017-11-14T00:45:24.832Z,5.74
2017-11-14T00:46:26.710Z,5.67
2017-11-14T00:47:28.523Z,5.75
2017-11-14T00:48:30.333Z,5.72
2017-11-14T00:49:32.209Z,5.67
2017-11-14T00:50:34.087Z,5.72
2017-11-14T00:51:35.959Z,5.72
2017-11-14T00:52:50.104Z,5.61
2017-11-14T00:53:51.978Z,5.60
2017-11-14T00:54:53.858Z,5.63
2017-11-14T00:55:55.734Z,5.60
2017-11-14T00:56:57.551Z,5.46
2017-11-14T00:57:59.358Z,5.49
2017-11-14T00:59:01.236Z,5.51
2017-11-14T01:00:03.113Z,5.54
2017-11-14T01:01:04.990Z,5.49
2017-11-14T01:02:19.134Z,5.48
2017-11-14T01:03:21.021Z,5.49
2017-11-14T01:04:22.889Z,5.48
2017-11-14T01:05:24.764Z,5.49
2017-11-14T01:06:26.578Z,5.53
2017-11-14T01:07:28.390Z,5.48
2017-11-14T01:08:30.266Z,5.49
2017-11-14T01:09:32.144Z,5.51
2017-11-14T01:10:34.019Z,5.49
2017-11-14T01:11:48.166Z,5.51
2017-11-14T01:12:50.041Z,5.48
2017-11-14T01:13:51.922Z,5.53
2017-11-14T01:14:53.800Z,5.38
2017-11-14T01:15:55.610Z,5.42
2017-11-14T01:16:57.418Z,5.36
2017-11-14T01:17:59.294Z,5.38
2017-11-14T01:19:01.171Z,5.35
2017-11-14T01:20:03.047Z,5.27
2017-11-14T01:21:17.193Z,5.18
2017-11-14T01:22:19.066Z,5.20
2017-11-14T01:23:20.946Z,5.18
2017-11-14T01:24:22.822Z,5.13
2017-11-14T01:25:24.633Z,5.12
2017-11-14T01:26:26.442Z,5.06
2017-11-14T01:27:28.319Z,4.89
2017-11-14T01:28:30.194Z,4.73
2017-11-14T01:29:32.071Z,4.72
2017-11-14T01:30:46.216Z,4.65
2017-11-14T01:31:48.089Z,4.54
2017-11-14T01:32:49.964Z,4.52
2017-11-14T01:33:51.841Z,4.47
2017-11-14T01:34:53.653Z,4.47
2017-11-14T01:35:55.463Z,4.54
2017-11-14T01:36:57.339Z,4.44
2017-11-14T01:37:59.217Z,4.41
2017-11-14T01:39:01.091Z,4.30
2017-11-14T01:40:15.239Z,4.32
2017-11-14T01:41:17.119Z,4.27
2017-11-14T01:42:18.996Z,4.29
2017-11-14T01:43:20.871Z,4.18
2017-11-14T01:44:22.682Z,4.20
2017-11-14T01:45:24.497Z,4.15
2017-11-14T01:46:26.368Z,4.23
2017-11-14T01:47:28.243Z,4.18
2017-11-14T01:48:30.118Z,4.16
2017-11-14T01:49:44.259Z,4.22
2017-11-14T01:50:46.134Z,4.20
2017-11-14T01:51:48.012Z,4.16
2017-11-14T01:52:49.887Z,4.16
2017-11-14T01:53:51.702Z,4.23
2017-11-14T01:54:53.510Z,4.29
2017-11-14T01:55:55.387Z,4.30
2017-11-14T01:56:57.263Z,4.34
2017-11-14T01:57:59.159Z,4.36
2017-11-14T01:59:13.284Z,4.34
2017-11-14T02:00:15.162Z,4.42
2017-11-14T02:01:17.041Z,4.41
2017-11-14T02:02:18.916Z,4.44
2017-11-14T02:03:20.729Z,4.41
2017-11-14T02:04:22.541Z,4.52
2017-11-14T02:05:24.423Z,4.47
2017-11-14T02:06:26.302Z,4.54
2017-11-14T02:07:28.179Z,4.52
2017-11-14T02:08:42.323Z,4.44
2017-11-14T02:09:44.197Z,4.42
2017-11-14T02:10:46.082Z,4.44
2017-11-14T02:11:47.956Z,4.52
2017-11-14T02:12:49.765Z,4.54
2017-11-14T02:13:51.574Z,4.48
2017-11-14T02:14:53.451Z,4.54
2017-11-14T02:15:55.330Z,4.54
2017-11-14T02:16:57.206Z,4.50
2017-11-14T02:18:11.353Z,4.50
2017-11-14T02:19:13.227Z,4.58
2017-11-14T02:20:15.107Z,4.52
2017-11-14T02:21:16.983Z,4.50
2017-11-14T02:22:18.795Z,4.51
2017-11-14T02:23:20.604Z,4.48
2017-11-14T02:24:22.481Z,4.59
2017-11-14T02:25:24.358Z,4.62
2017-11-14T02:26:26.232Z,4.69
2017-11-14T02:27:40.384Z,4.77
2017-11-14T02:28:42.252Z,4.88
2017-11-14T02:29:44.135Z,4.94
2017-11-14T02:30:46.010Z,5.10
2017-11-14T02:31:47.826Z,5.09
2017-11-14T02:32:49.653Z,5.27
2017-11-14T02:33:51.517Z,5.36
2017-11-14T02:34:53.388Z,5.30
2017-11-14T02:35:55.269Z,5.40
2017-11-14T02:37:09.413Z,5.48
2017-11-14T02:38:11.292Z,5.54
2017-11-14T02:39:13.170Z,5.65
2017-11-14T02:40:15.043Z,5.75
2017-11-14T02:41:16.859Z,5.72
2017-11-14T02:42:18.669Z,5.79
2017-11-14T02:43:20.543Z,5.79
2017-11-14T02:44:22.420Z,5.85
2017-11-14T02:45:24.296Z,5.79
2017-11-14T02:46:38.443Z,5.71
2017-11-14T02:47:40.317Z,5.75
2017-11-14T02:48:42.193Z,5.65
2017-11-14T02:49:44.070Z,5.63
2017-11-14T02:50:45.885Z,5.63
2017-11-14T02:51:47.707Z,5.67
2017-11-14T02:52:49.572Z,5.61
2017-11-14T02:53:51.464Z,5.75
2017-11-14T02:54:53.326Z,5.83
2017-11-14T02:56:07.475Z,5.83
2017-11-14T02:57:09.344Z,5.79
2017-11-14T02:58:11.219Z,5.91
2017-11-14T02:59:13.096Z,5.90
2017-11-14T03:00:14.911Z,5.97
2017-11-14T03:01:16.721Z,5.94
2017-11-14T03:02:18.595Z,5.99
2017-11-14T03:03:20.432Z,6.04
2017-11-14T03:04:22.246Z,5.96
2017-11-14T03:05:36.395Z,6.03
2017-11-14T03:06:38.268Z,6.06
2017-11-14T03:07:40.145Z,6.14
2017-11-14T03:08:42.018Z,6.04
2017-11-14T03:09:43.832Z,6.04
2017-11-14T03:10:45.645Z,6.09
2017-11-14T03:11:47.525Z,6.03
2017-11-14T03:12:49.395Z,6.04
2017-11-14T03:13:51.270Z,6.04
2017-11-14T03:15:05.416Z,6.15
2017-11-14T03:16:07.295Z,6.08
2017-11-14T03:17:09.172Z,6.14
2017-11-14T03:18:11.047Z,6.03
2017-11-14T03:19:12.859Z,6.08
2017-11-14T03:20:14.672Z,6.15
2017-11-14T03:21:16.547Z,6.17
2017-11-14T03:22:18.424Z,6.22
2017-11-14T03:23:20.300Z,6.15
2017-11-14T03:24:34.450Z,6.28
2017-11-14T03:25:36.325Z,6.31
2017-11-14T03:26:38.201Z,6.36
2017-11-14T03:27:40.074Z,6.30
2017-11-14T03:28:41.890Z,6.36
2017-11-14T03:29:43.701Z,6.33
2017-11-14T03:30:45.577Z,6.38
2017-11-14T03:31:47.455Z,6.41
2017-11-14T03:32:49.343Z,6.41
2017-11-14T03:34:03.477Z,6.38
2017-11-14T03:35:05.353Z,6.38
2017-11-14T03:36:07.231Z,6.41
2017-11-14T03:37:09.111Z,6.34
2017-11-14T03:38:10.925Z,6.33
2017-11-14T03:39:12.738Z,6.34
2017-11-14T03:40:14.614Z,6.38
2017-11-14T03:41:16.493Z,6.41
2017-11-14T03:42:18.373Z,6.46
2017-11-14T03:43:32.519Z,6.49
2017-11-14T03:44:34.433Z,6.48
2017-11-14T03:45:36.374Z,6.48
2017-11-14T03:46:38.259Z,6.48
2017-11-14T03:47:40.074Z,6.49
2017-11-14T03:48:41.888Z,6.49
2017-11-14T03:49:43.764Z,6.46
2017-11-14T03:50:45.645Z,6.51
2017-11-14T03:51:47.517Z,6.48
2017-11-14T03:53:01.666Z,6.54
2017-11-14T03:54:03.544Z,6.52
2017-11-14T03:55:05.424Z,6.52
2017-11-14T03:56:07.299Z,6.58
2017-11-14T03:57:09.120Z,6.52
2017-11-14T03:58:10.927Z,6.49
2017-11-14T03:59:12.808Z,6.44
2017-11-14T04:00:14.691Z,6.44
2017-11-14T04:01:16.571Z,6.41
2017-11-14T04:02:30.765Z,6.48
2017-11-14T04:03:32.641Z,6.38
2017-11-14T04:04:34.518Z,6.41
2017-11-14T04:05:36.396Z,6.37
2017-11-14T04:06:38.216Z,6.36
2017-11-14T04:07:40.054Z,6.30
2017-11-14T04:08:41.930Z,6.31
2017-11-14T04:09:43.809Z,6.22
2017-11-14T04:10:45.686Z,6.28
2017-11-14T04:11:59.834Z,6.18
2017-11-14T04:13:01.710Z,6.30
2017-11-14T04:14:03.586Z,6.36
2017-11-14T04:15:05.464Z,6.34
2017-11-14T04:16:07.276Z,6.43
2017-11-14T04:17:09.087Z,6.43
2017-11-14T04:18:10.963Z,6.38
2017-11-14T04:19:12.838Z,6.44
2017-11-14T04:20:14.718Z,6.31
2017-11-14T04:21:28.916Z,6.34
2017-11-14T04:22:30.791Z,6.22
2017-11-14T04:23:32.670Z,6.28
2017-11-14T04:24:34.544Z,6.30
2017-11-14T04:25:36.359Z,6.25
2017-11-14T04:26:38.171Z,6.21
2017-11-14T04:27:40.047Z,6.17
2017-11-14T04:28:41.923Z,6.06
2017-11-14T04:29:43.799Z,6.09
2017-11-14T04:30:57.945Z,6.00
2017-11-14T04:31:59.821Z,6.01
2017-11-14T04:33:01.699Z,6.03
2017-11-14T04:34:03.574Z,5.94
2017-11-14T04:35:05.389Z,6.03
2017-11-14T04:36:07.199Z,5.99
2017-11-14T04:37:09.034Z,6.03
2017-11-14T04:38:10.848Z,6.00
2017-11-14T04:39:12.660Z,6.06
2017-11-14T04:40:26.856Z,6.00
2017-11-14T04:41:28.730Z,6.01
2017-11-14T04:42:30.630Z,6.00
2017-11-14T04:43:32.487Z,5.99
2017-11-14T04:44:34.303Z,5.82
2017-11-14T04:45:36.116Z,5.83
2017-11-14T04:46:37.999Z,5.79
2017-11-14T04:47:39.870Z,5.82
2017-11-14T04:48:41.749Z,5.65
2017-11-14T04:49:55.945Z,5.48
2017-11-14T04:50:57.820Z,5.46
2017-11-14T04:51:59.697Z,5.42
2017-11-14T04:53:01.573Z,5.28
2017-11-14T04:54:03.391Z,5.27
2017-11-14T04:55:05.203Z,5.24
2017-11-14T04:56:07.083Z,5.17
2017-11-14T04:57:08.957Z,5.12
2017-11-14T04:58:10.838Z,5.15
2017-11-14T04:59:24.984Z,5.28
2017-11-14T05:00:26.858Z,5.25
2017-11-14T05:01:28.734Z,5.25
2017-11-14T05:02:30.608Z,5.18
2017-11-14T05:03:32.422Z,5.33
2017-11-14T05:04:34.236Z,5.27
2017-11-14T05:05:36.109Z,5.31
2017-11-14T05:06:37.987Z,5.38
2017-11-14T05:07:39.862Z,5.54
2017-11-14T05:08:54.007Z,5.46
2017-11-14T05:09:55.883Z,5.56
2017-11-14T05:10:57.771Z,5.60
2017-11-14T05:11:59.632Z,5.58
2017-11-14T05:13:01.446Z,5.56
2017-11-14T05:14:03.264Z,5.64
2017-11-14T05:15:05.133Z,5.61
2017-11-14T05:16:07.008Z,5.65
2017-11-14T05:17:08.884Z,5.63
2017-11-14T05:18:23.031Z,5.71
2017-11-14T05:19:24.905Z,5.71
2017-11-14T05:20:26.782Z,5.68
2017-11-14T05:21:28.658Z,5.74
2017-11-14T05:22:30.470Z,5.76
2017-11-14T05:23:32.284Z,5.71
2017-11-14T05:24:34.161Z,5.67
2017-11-14T05:25:36.039Z,5.61
2017-11-14T05:26:37.914Z,5.61
2017-11-14T05:27:52.061Z,5.67
2017-11-14T05:28:53.938Z,5.64
2017-11-14T05:29:55.818Z,5.71
2017-11-14T05:30:57.690Z,5.71
2017-11-14T05:31:59.504Z,5.72
2017-11-14T05:33:01.314Z,5.68
2017-11-14T05:34:03.197Z,5.71
2017-11-14T05:35:05.071Z,5.74
2017-11-14T05:36:06.948Z,5.72
2017-11-14T05:37:21.123Z,5.82
2017-11-14T05:38:22.975Z,5.86
2017-11-14T05:39:24.854Z,5.86
2017-11-14T05:40:26.727Z,5.83
2017-11-14T05:41:28.541Z,5.72
2017-11-14T05:42:30.353Z,5.65
2017-11-14T05:43:32.229Z,5.54
2017-11-14T05:44:34.103Z,5.43
2017-11-14T05:45:35.983Z,5.36
2017-11-14T05:46:50.129Z,5.43
2017-11-14T05:47:52.007Z,5.42
2017-11-14T05:48:53.882Z,5.43
2017-11-14T05:49:55.756Z,5.42
2017-11-14T05:50:57.569Z,5.38
2017-11-14T05:51:59.382Z,5.39
2017-11-14T05:53:01.256Z,5.46
2017-11-14T05:54:03.134Z,5.51
2017-11-14T05:55:05.011Z,5.46
2017-11-14T05:56:19.163Z,5.48
2017-11-14T05:57:21.036Z,5.42
2017-11-14T05:58:22.918Z,5.40
2017-11-14T05:59:24.793Z,5.45
2017-11-14T06:00:26.609Z,5.51
2017-11-14T06:01:28.422Z,5.54
2017-11-14T06:02:30.299Z,5.63
2017-11-14T06:03:32.175Z,5.75
2017-11-14T06:04:34.055Z,5.81
2017-11-14T06:05:48.201Z,5.78
2017-11-14T06:06:50.076Z,5.79
2017-11-14T06:07:51.955Z,5.83
2017-11-14T06:08:53.834Z,5.79
2017-11-14T06:09:55.651Z,5.89
2017-11-14T06:10:57.469Z,5.81
2017-11-14T06:11:59.347Z,5.79
2017-11-14T06:13:01.228Z,5.78
2017-11-14T06:14:03.106Z,5.86
2017-11-14T06:15:17.256Z,5.72
2017-11-14T06:16:19.133Z,5.74
2017-11-14T06:17:21.015Z,5.78
2017-11-14T06:18:22.892Z,5.85
2017-11-14T06:19:24.712Z,5.81
2017-11-14T06:20:26.531Z,5.67
2017-11-14T06:21:28.408Z,5.68
2017-11-14T06:22:30.288Z,5.58
2017-11-14T06:23:32.167Z,5.64
2017-11-14T06:24:46.316Z,5.56
2017-11-14T06:25:48.196Z,5.49
2017-11-14T06:26:50.075Z,5.60
2017-11-14T06:27:51.955Z,5.42
2017-11-14T06:28:53.773Z,5.38
2017-11-14T06:29:55.587Z,5.31
2017-11-14T06:30:57.468Z,5.48
2017-11-14T06:31:59.348Z,5.33
2017-11-14T06:33:01.227Z,5.22
2017-11-14T06:34:15.375Z,5.22
2017-11-14T06:35:17.253Z,5.17
2017-11-14T06:36:19.144Z,5.28
2017-11-14T06:37:21.015Z,5.36
2017-11-14T06:38:22.830Z,5.53
2017-11-14T06:39:24.648Z,5.45
2017-11-14T06:40:26.533Z,5.53
2017-11-14T06:41:28.409Z,5.53
2017-11-14T06:42:30.286Z,5.58
2017-11-14T06:43:44.466Z,5.53
2017-11-14T06:44:46.343Z,5.60
2017-11-14T06:45:48.226Z,5.71
2017-11-14T06:46:50.100Z,5.72
2017-11-14T06:47:51.915Z,5.74
2017-11-14T06:48:53.734Z,5.76
2017-11-14T06:49:55.620Z,5.75
2017-11-14T06:50:57.491Z,5.74
2017-11-14T06:51:59.372Z,5.74
2017-11-14T06:53:13.523Z,5.68
2017-11-14T06:54:15.402Z,5.83
2017-11-14T06:55:17.282Z,5.90
2017-11-14T06:56:19.161Z,5.94
2017-11-14T06:57:20.983Z,5.94
2017-11-14T06:58:22.831Z,5.97
2017-11-14T06:59:24.718Z,5.97
2017-11-14T07:00:26.587Z,5.97
2017-11-14T07:01:28.470Z,6.00
2017-11-14T07:02:42.671Z,6.19
2017-11-14T07:03:44.549Z,6.30
2017-11-14T07:04:46.430Z,6.40
2017-11-14T07:05:48.313Z,6.34
2017-11-14T07:06:50.132Z,6.37
2017-11-14T07:07:51.946Z,6.48
2017-11-14T07:08:53.830Z,6.46
2017-11-14T07:09:55.713Z,6.34
2017-11-14T07:10:57.598Z,6.40
2017-11-14T07:12:11.806Z,6.37
2017-11-14T07:13:13.686Z,6.38
2017-11-14T07:14:15.565Z,6.37
2017-11-14T07:15:17.452Z,6.34
2017-11-14T07:16:19.268Z,6.18
2017-11-14T07:17:21.083Z,6.08
2017-11-14T07:18:22.962Z,6.04
2017-11-14T07:19:24.842Z,6.01
2017-11-14T07:20:26.727Z,6.01
2017-11-14T07:21:40.881Z,5.99
2017-11-14T07:22:42.758Z,6.09
2017-11-14T07:23:44.658Z,6.15
2017-11-14T07:24:46.539Z,6.06
2017-11-14T07:25:48.355Z,6.11
2017-11-14T07:26:50.171Z,6.08
2017-11-14T07:27:52.052Z,5.94
2017-11-14T07:28:53.934Z,5.96
2017-11-14T07:29:55.822Z,6.01
2017-11-14T07:31:10.026Z,6.19
2017-11-14T07:32:11.901Z,6.22
2017-11-14T07:33:13.788Z,6.36
2017-11-14T07:34:15.666Z,6.43
2017-11-14T07:35:17.488Z,6.51
2017-11-14T07:36:19.317Z,6.55
2017-11-14T07:37:21.192Z,6.58
2017-11-14T07:38:23.069Z,6.48
2017-11-14T07:39:24.955Z,6.62
2017-11-14T07:40:39.117Z,6.56
2017-11-14T07:41:40.997Z,6.67
2017-11-14T07:42:42.881Z,6.70
2017-11-14T07:43:44.767Z,6.71
2017-11-14T07:44:46.583Z,6.64
2017-11-14T07:45:48.404Z,6.58
2017-11-14T07:46:50.286Z,6.46
2017-11-14T07:47:52.230Z,6.36
2017-11-14T07:48:54.092Z,6.30
2017-11-14T07:50:08.240Z,6.36
2017-11-14T07:51:10.115Z,6.33
2017-11-14T07:52:12.001Z,6.25
2017-11-14T07:53:13.877Z,6.33
2017-11-14T07:54:15.695Z,6.22
2017-11-14T07:55:17.532Z,6.28
2017-11-14T07:56:19.409Z,6.30
2017-11-14T07:57:21.248Z,6.15
2017-11-14T07:58:23.093Z,6.14
2017-11-14T07:59:37.222Z,5.99
2017-11-14T08:00:39.103Z,6.01
2017-11-14T08:01:40.986Z,5.83
2017-11-14T08:02:42.868Z,5.83
2017-11-14T08:03:44.684Z,5.82
2017-11-14T08:04:46.503Z,5.83
2017-11-14T08:05:48.388Z,5.81
2017-11-14T08:06:50.271Z,5.75
2017-11-14T08:07:52.151Z,5.64
2017-11-14T08:09:06.305Z,5.65
2017-11-14T08:10:08.184Z,5.79
2017-11-14T08:11:10.067Z,5.75
2017-11-14T08:12:11.946Z,5.71
2017-11-14T08:13:13.765Z,5.85
2017-11-14T08:14:15.583Z,6.03
2017-11-14T08:15:17.465Z,6.09
2017-11-14T08:16:19.352Z,6.04
2017-11-14T08:17:21.232Z,6.04
2017-11-14T08:18:35.389Z,6.00
2017-11-14T08:19:37.266Z,6.00
2017-11-14T08:20:39.146Z,6.04
2017-11-14T08:21:41.025Z,6.15
2017-11-14T08:22:42.844Z,6.28
2017-11-14T08:23:44.661Z,6.48
2017-11-14T08:24:46.542Z,6.51
2017-11-14T08:25:48.462Z,6.69
2017-11-14T08:26:50.319Z,6.74
2017-11-14T08:28:04.471Z,6.92
2017-11-14T08:29:06.362Z,7.03
2017-11-14T08:30:08.233Z,7.15
2017-11-14T08:31:10.114Z,7.28
2017-11-14T08:32:11.935Z,7.35
2017-11-14T08:33:13.749Z,7.42
2017-11-14T08:34:15.665Z,7.45
2017-11-14T08:35:17.518Z,7.49
2017-11-14T08:36:19.402Z,7.48
2017-11-14T08:37:33.605Z,7.68
2017-11-14T08:38:35.488Z,7.79
2017-11-14T08:39:37.372Z,7.75
2017-11-14T08:40:39.257Z,7.82
2017-11-14T08:41:41.078Z,7.87
2017-11-14T08:42:42.895Z,7.92
2017-11-14T08:43:44.778Z,7.93
2017-11-14T08:44:46.659Z,8.00
2017-11-14T08:45:48.842Z,7.98
2017-11-14T08:47:03.015Z,7.86
2017-11-14T08:48:04.897Z,7.90
2017-11-14T08:49:06.776Z,8.04
2017-11-14T08:50:08.658Z,8.12
2017-11-14T08:51:10.478Z,8.23
2017-11-14T08:52:12.301Z,8.30
2017-11-14T08:53:14.179Z,8.30
2017-11-14T08:54:16.065Z,8.41
2017-11-14T08:55:17.951Z,8.45
2017-11-14T08:56:32.107Z,8.61
2017-11-14T08:57:34.006Z,8.65
2017-11-14T08:58:35.874Z,8.70
2017-11-14T08:59:37.757Z,8.61
2017-11-14T09:00:39.578Z,8.56
2017-11-14T09:01:41.397Z,8.73
2017-11-14T09:02:43.279Z,8.80
2017-11-14T09:03:45.292Z,8.87
2017-11-14T09:04:47.147Z,9.08
2017-11-14T09:06:01.304Z,8.96
2017-11-14T09:07:03.183Z,8.84
2017-11-14T09:08:05.075Z,8.96
2017-11-14T09:09:06.949Z,9.10
2017-11-14T09:10:08.770Z,9.10
2017-11-14T09:11:10.591Z,9.23
2017-11-14T09:12:12.473Z,9.28
2017-11-14T09:13:14.358Z,9.36
2017-11-14T09:14:16.254Z,9.53
2017-11-14T09:15:30.397Z,9.53
2017-11-14T09:16:32.277Z,9.56
2017-11-14T09:17:34.162Z,9.54
2017-11-14T09:18:36.044Z,9.60
2017-11-14T09:19:37.868Z,9.43
2017-11-14T09:20:39.684Z,9.35
2017-11-14T09:21:41.569Z,9.23
2017-11-14T09:22:43.457Z,9.11
2017-11-14T09:23:45.348Z,9.14
2017-11-14T09:24:59.548Z,9.08
2017-11-14T09:26:01.434Z,9.11
2017-11-14T09:27:03.318Z,9.26
2017-11-14T09:28:05.202Z,9.32
2017-11-14T09:29:07.023Z,9.35
2017-11-14T09:30:08.844Z,9.38
2017-11-14T09:31:10.727Z,9.40
2017-11-14T09:32:12.613Z,9.58
2017-11-14T09:33:14.495Z,9.42
2017-11-14T09:34:28.671Z,9.43
2017-11-14T09:35:30.545Z,9.48
2017-11-14T09:36:32.427Z,9.47
2017-11-14T09:37:34.311Z,9.36
2017-11-14T09:38:36.133Z,9.33
2017-11-14T09:39:38.019Z,9.42
2017-11-14T09:40:40.089Z,9.42
2017-11-14T09:41:42.086Z,9.35
2017-11-14T09:42:43.965Z,9.42
2017-11-14T09:43:58.125Z,9.36
2017-11-14T09:45:00.001Z,9.47
2017-11-14T09:46:01.887Z,9.50
2017-11-14T09:47:03.770Z,9.54
2017-11-14T09:48:05.592Z,9.58
2017-11-14T09:49:07.563Z,9.57
2017-11-14T09:50:09.528Z,9.54
2017-11-14T09:51:11.511Z,9.54
2017-11-14T09:52:13.516Z,9.38
2017-11-14T09:53:27.911Z,9.42
2017-11-14T09:54:29.921Z,9.54
2017-11-14T09:55:31.808Z,9.58
2017-11-14T09:56:33.687Z,9.51
2017-11-14T09:57:35.506Z,9.51
2017-11-14T09:58:37.331Z,9.65
2017-11-14T09:59:39.212Z,9.51
2017-11-14T10:00:41.096Z,9.51
2017-11-14T10:01:42.981Z,9.40
2017-11-14T10:02:57.139Z,9.39
2017-11-14T10:03:59.023Z,9.42
2017-11-14T10:05:00.906Z,9.58
2017-11-14T10:06:02.793Z,9.64
2017-11-14T10:07:04.610Z,9.78
2017-11-14T10:08:06.431Z,9.76
2017-11-14T10:09:08.317Z,9.79
2017-11-14T10:10:10.198Z,9.93
2017-11-14T10:11:12.043Z,9.99
2017-11-14T10:12:26.204Z,10.01
2017-11-14T10:13:28.087Z,10.01
2017-11-14T10:14:29.973Z,9.94
2017-11-14T10:15:31.855Z,9.94
2017-11-14T10:16:33.677Z,9.93
2017-11-14T10:17:35.590Z,9.76
2017-11-14T10:18:37.589Z,9.81
2017-11-14T10:19:39.678Z,9.81
2017-11-14T10:20:41.675Z,9.79
2017-11-14T10:21:55.830Z,9.71
2017-11-14T10:22:57.714Z,9.61
2017-11-14T10:23:59.596Z,9.57
2017-11-14T10:25:01.483Z,9.60
2017-11-14T10:26:03.303Z,9.65
2017-11-14T10:27:05.125Z,9.61
2017-11-14T10:28:07.008Z,9.57
2017-11-14T10:29:08.894Z,9.68
2017-11-14T10:30:10.856Z,9.69
2017-11-14T10:31:25.155Z,9.81
2017-11-14T10:32:27.030Z,9.84
2017-11-14T10:33:28.916Z,9.83
2017-11-14T10:34:30.801Z,9.93
2017-11-14T10:35:32.622Z,9.89
2017-11-14T10:36:34.446Z,10.04
2017-11-14T10:37:36.329Z,9.93
2017-11-14T10:38:38.213Z,10.08
2017-11-14T10:39:40.102Z,10.12
2017-11-14T10:40:54.258Z,10.22
2017-11-14T10:41:56.150Z,10.18
2017-11-14T10:42:58.026Z,10.30
2017-11-14T10:43:59.913Z,10.27
2017-11-14T10:45:01.746Z,10.29
2017-11-14T10:46:03.560Z,10.27
2017-11-14T10:47:05.447Z,10.36
2017-11-14T10:48:07.331Z,10.40
2017-11-14T10:49:09.219Z,10.41
2017-11-14T10:50:23.375Z,10.45
2017-11-14T10:51:25.258Z,10.45
2017-11-14T10:52:27.145Z,10.42
2017-11-14T10:53:29.030Z,10.42
2017-11-14T10:54:30.859Z,10.45
2017-11-14T10:55:32.673Z,10.59
2017-11-14T10:56:34.569Z,10.52
2017-11-14T10:57:36.443Z,10.59
2017-11-14T10:58:38.335Z,10.60
2017-11-14T10:59:52.490Z,10.56
2017-11-14T11:00:54.374Z,10.59
2017-11-14T11:01:56.259Z,10.55
2017-11-14T11:02:58.145Z,10.59
2017-11-14T11:03:59.973Z,10.59
2017-11-14T11:05:01.793Z,10.53
2017-11-14T11:06:03.677Z,10.59
2017-11-14T11:07:05.575Z,10.53
2017-11-14T11:08:07.454Z,10.55
2017-11-14T11:09:21.630Z,10.55
2017-11-14T11:10:23.502Z,10.56
2017-11-14T11:11:25.385Z,10.56
2017-11-14T11:12:27.266Z,10.68
2017-11-14T11:13:29.090Z,10.66
2017-11-14T11:14:30.914Z,10.78
2017-11-14T11:15:32.802Z,10.86
2017-11-14T11:16:34.697Z,10.82
2017-11-14T11:17:36.578Z,10.85
2017-11-14T11:18:50.734Z,10.82
2017-11-14T11:19:52.619Z,10.82
2017-11-14T11:20:54.506Z,10.78
2017-11-14T11:21:56.395Z,10.67
2017-11-14T11:22:58.220Z,10.71
2017-11-14T11:24:00.043Z,10.64
2017-11-14T11:25:01.926Z,10.67
2017-11-14T11:26:03.812Z,10.79
2017-11-14T11:27:05.706Z,10.79
2017-11-14T11:28:19.859Z,10.81
2017-11-14T11:29:21.745Z,10.92
2017-11-14T11:30:23.631Z,10.96
2017-11-14T11:31:25.516Z,11.04
2017-11-14T11:32:27.365Z,11.06
2017-11-14T11:33:29.189Z,11.14
2017-11-14T11:34:31.103Z,11.10
2017-11-14T11:35:33.023Z,11.06
2017-11-14T11:36:34.874Z,10.94
2017-11-14T11:37:49.070Z,10.70
2017-11-14T11:38:50.957Z,10.71
2017-11-14T11:39:52.841Z,10.56
2017-11-14T11:40:54.727Z,10.56
2017-11-14T11:41:56.555Z,10.41
2017-11-14T11:42:58.378Z,10.27
2017-11-14T11:44:00.261Z,10.12
2017-11-14T11:45:02.149Z,9.89
2017-11-14T11:46:04.029Z,9.64
2017-11-14T11:47:18.189Z,9.39
2017-11-14T11:48:20.184Z,9.29
2017-11-14T11:49:22.134Z,9.20
2017-11-14T11:50:24.018Z,9.08
2017-11-14T11:51:25.838Z,9.01
2017-11-14T11:52:27.661Z,8.86
2017-11-14T11:53:29.545Z,8.83
2017-11-14T11:54:31.429Z,8.96
2017-11-14T11:55:33.382Z,9.13
2017-11-14T11:56:47.586Z,9.35
2017-11-14T11:57:49.466Z,9.46
2017-11-14T11:58:51.350Z,9.57
2017-11-14T11:59:53.234Z,9.79
2017-11-14T12:00:55.060Z,9.93
2017-11-14T12:01:56.887Z,9.96
2017-11-14T12:02:58.813Z,10.04
2017-11-14T12:04:00.726Z,10.22
2017-11-14T12:05:02.612Z,10.26
2017-11-14T12:06:16.997Z,10.30
2017-11-14T12:07:18.881Z,10.36
2017-11-14T12:08:20.765Z,10.25
2017-11-14T12:09:22.651Z,10.22
2017-11-14T12:10:24.500Z,10.08
2017-11-14T12:11:26.975Z,10.20
2017-11-14T12:12:28.848Z,10.12
2017-11-14T12:13:30.695Z,10.11
2017-11-14T12:14:32.518Z,10.09
2017-11-14T12:15:46.764Z,10.09
2017-11-14T12:16:48.647Z,10.01
2017-11-14T12:17:50.533Z,9.99
2017-11-14T12:18:52.422Z,10.12
2017-11-14T12:19:54.294Z,10.12
2017-11-14T12:20:56.139Z,10.25
2017-11-14T12:21:58.028Z,10.26
2017-11-14T12:22:59.911Z,10.38
2017-11-14T12:24:01.799Z,10.48
2017-11-14T12:25:15.957Z,10.44
2017-11-14T12:26:17.842Z,10.48
2017-11-14T12:27:19.726Z,10.55
2017-11-14T12:28:21.617Z,10.61
2017-11-14T12:29:23.432Z,10.68
2017-11-14T12:30:25.256Z,10.84
2017-11-14T12:31:27.142Z,10.78
2017-11-14T12:32:29.032Z,10.82
2017-11-14T12:33:30.913Z,10.78
2017-11-14T12:34:45.070Z,10.78
2017-11-14T12:35:46.955Z,10.67
2017-11-14T12:36:48.839Z,10.73
2017-11-14T12:37:50.724Z,10.63
2017-11-14T12:38:52.547Z,10.67
2017-11-14T12:39:54.374Z,10.76
2017-11-14T12:40:56.257Z,10.74
2017-11-14T12:41:58.145Z,10.71
2017-11-14T12:43:00.028Z,10.67
2017-11-14T12:44:14.184Z,10.66
2017-11-14T12:45:16.071Z,10.60
2017-11-14T12:46:17.957Z,10.51
2017-11-14T12:47:19.841Z,10.59
2017-11-14T12:48:21.680Z,10.61
2017-11-14T12:49:23.494Z,10.61
2017-11-14T12:50:25.381Z,10.70
2017-11-14T12:51:27.264Z,10.66
2017-11-14T12:52:29.230Z,10.66
2017-11-14T12:53:43.412Z,10.64
2017-11-14T12:54:45.297Z,10.68
2017-11-14T12:55:47.182Z,10.56
2017-11-14T12:56:49.069Z,10.48
2017-11-14T12:57:50.893Z,10.47
2017-11-14T12:58:52.717Z,10.40
2017-11-14T12:59:54.599Z,10.45
2017-11-14T13:00:56.485Z,10.38
2017-11-14T13:01:58.358Z,10.36
2017-11-14T13:03:12.536Z,10.32
2017-11-14T13:04:14.428Z,10.29
2017-11-14T13:05:16.309Z,10.18
2017-11-14T13:06:18.193Z,10.17
2017-11-14T13:07:20.020Z,10.11
2017-11-14T13:08:21.833Z,10.11
2017-11-14T13:09:23.717Z,9.93
2017-11-14T13:10:25.614Z,9.90
2017-11-14T13:11:27.488Z,9.91
2017-11-14T13:12:41.678Z,9.93
2017-11-14T13:13:43.565Z,9.89
2017-11-14T13:14:45.448Z,9.93
2017-11-14T13:15:47.330Z,9.96
2017-11-14T13:16:49.150Z,10.07
2017-11-14T13:17:50.973Z,10.02
2017-11-14T13:18:52.791Z,9.99
2017-11-14T13:19:54.615Z,9.94
2017-11-14T13:20:56.440Z,9.81
2017-11-14T13:22:10.603Z,9.97
2017-11-14T13:23:12.473Z,9.86
2017-11-14T13:24:14.356Z,9.79
2017-11-14T13:25:16.236Z,9.78
2017-11-14T13:26:18.074Z,9.68
2017-11-14T13:27:19.881Z,9.65
2017-11-14T13:28:21.765Z,9.60
2017-11-14T13:29:23.653Z,9.57
2017-11-14T13:30:25.533Z,9.61
2017-11-14T13:31:39.740Z,9.54
2017-11-14T13:32:41.623Z,9.65
2017-11-14T13:33:43.504Z,9.68
2017-11-14T13:34:45.386Z,9.69
2017-11-14T13:35:47.207Z,9.69
2017-11-14T13:36:49.026Z,9.66
2017-11-14T13:37:50.907Z,9.68
2017-11-14T13:38:52.791Z,9.75
2017-11-14T13:39:54.686Z,9.61
2017-11-14T13:41:08.875Z,9.64
2017-11-14T13:42:10.754Z,9.72
2017-11-14T13:43:12.640Z,9.74
2017-11-14T13:44:14.525Z,9.71
2017-11-14T13:45:16.345Z,9.66
2017-11-14T13:46:18.167Z,9.69
2017-11-14T13:47:20.050Z,9.71
2017-11-14T13:48:21.933Z,9.65
2017-11-14T13:49:23.816Z,9.60
2017-11-14T13:50:38.020Z,9.54
2017-11-14T13:51:39.897Z,9.57
2017-11-14T13:52:41.779Z,9.54
2017-11-14T13:53:43.657Z,9.60
2017-11-14T13:54:45.476Z,9.61
2017-11-14T13:55:47.295Z,9.58
2017-11-14T13:56:49.175Z,9.69